sensor_id;sensor_type;location;lat;lon;timestamp;P1;durP1;ratioP1;P2;durP2;ratioP2
30605;SDS011;17371;51.328;3.860;2022-10-26T00:01:46;13.27;;;5.87;;
30605;SDS011;17371;51.328;3.860;2022-10-26T00:04:12;11.02;;;6.07;;
30605;SDS011;17371;51.328;3.860;2022-10-26T00:06:37;13.80;;;6.07;;
30605;SDS011;17371;51.328;3.860;2022-10-26T00:09:03;11.10;;;6.23;;
30605;SDS011;17371;51.328;3.860;2022-10-26T00:11:28;14.97;;;6.20;;
30605;SDS011;17371;51.328;3.860;2022-10-26T00:13:53;12.13;;;5.82;;
30605;SDS011;17371;51.328;3.860;2022-10-26T00:16:20;14.60;;;6.20;;
30605;SDS011;17371;51.328;3.860;2022-10-26T00:18:48;12.80;;;5.50;;
30605;SDS011;17371;51.328;3.860;2022-10-26T00:21:14;12.50;;;5.93;;
30605;SDS011;17371;51.328;3.860;2022-10-26T00:23:39;15.60;;;6.03;;
30605;SDS011;17371;51.328;3.860;2022-10-26T00:26:04;12.32;;;6.30;;
30605;SDS011;17371;51.328;3.860;2022-10-26T00:28:31;10.57;;;5.70;;
30605;SDS011;17371;51.328;3.860;2022-10-26T00:30:59;12.25;;;6.38;;
30605;SDS011;17371;51.328;3.860;2022-10-26T00:33:25;12.32;;;6.38;;
30605;SDS011;17371;51.328;3.860;2022-10-26T00:35:53;14.37;;;6.40;;
30605;SDS011;17371;51.328;3.860;2022-10-26T00:38:18;10.20;;;6.15;;
30605;SDS011;17371;51.328;3.860;2022-10-26T00:40:43;13.13;;;6.47;;
30605;SDS011;17371;51.328;3.860;2022-10-26T00:43:12;15.03;;;6.83;;
30605;SDS011;17371;51.328;3.860;2022-10-26T00:45:39;10.38;;;6.20;;
30605;SDS011;17371;51.328;3.860;2022-10-26T00:48:05;14.10;;;6.40;;
30605;SDS011;17371;51.328;3.860;2022-10-26T00:50:32;10.30;;;6.10;;
30605;SDS011;17371;51.328;3.860;2022-10-26T00:53:00;12.33;;;6.13;;
30605;SDS011;17371;51.328;3.860;2022-10-26T00:55:28;16.67;;;6.55;;
30605;SDS011;17371;51.328;3.860;2022-10-26T00:57:55;13.05;;;5.93;;
30605;SDS011;17371;51.328;3.860;2022-10-26T01:00:21;16.33;;;6.10;;
30605;SDS011;17371;51.328;3.860;2022-10-26T01:02:46;12.60;;;5.80;;
30605;SDS011;17371;51.328;3.860;2022-10-26T01:05:13;15.13;;;6.10;;
30605;SDS011;17371;51.328;3.860;2022-10-26T01:07:40;14.50;;;5.82;;
30605;SDS011;17371;51.328;3.860;2022-10-26T01:10:07;11.88;;;5.70;;
30605;SDS011;17371;51.328;3.860;2022-10-26T01:12:33;15.10;;;6.75;;
30605;SDS011;17371;51.328;3.860;2022-10-26T01:14:58;14.83;;;5.60;;
30605;SDS011;17371;51.328;3.860;2022-10-26T01:17:26;12.90;;;5.80;;
30605;SDS011;17371;51.328;3.860;2022-10-26T01:23:15;11.60;;;6.55;;
30605;SDS011;17371;51.328;3.860;2022-10-26T01:25:55;13.20;;;6.20;;
30605;SDS011;17371;51.328;3.860;2022-10-26T01:28:33;13.00;;;5.93;;
30605;SDS011;17371;51.328;3.860;2022-10-26T01:31:11;12.27;;;5.67;;
30605;SDS011;17371;51.328;3.860;2022-10-26T01:33:43;13.10;;;6.15;;
30605;SDS011;17371;51.328;3.860;2022-10-26T01:36:10;10.50;;;5.97;;
30605;SDS011;17371;51.328;3.860;2022-10-26T01:38:40;11.55;;;5.88;;
30605;SDS011;17371;51.328;3.860;2022-10-26T01:41:10;15.05;;;6.15;;
30605;SDS011;17371;51.328;3.860;2022-10-26T01:43:39;15.13;;;5.67;;
30605;SDS011;17371;51.328;3.860;2022-10-26T01:46:06;13.05;;;5.95;;
30605;SDS011;17371;51.328;3.860;2022-10-26T01:48:34;12.48;;;6.03;;
30605;SDS011;17371;51.328;3.860;2022-10-26T01:51:02;12.98;;;6.35;;
30605;SDS011;17371;51.328;3.860;2022-10-26T01:53:28;12.30;;;5.65;;
30605;SDS011;17371;51.328;3.860;2022-10-26T01:55:54;20.83;;;6.60;;
30605;SDS011;17371;51.328;3.860;2022-10-26T02:01:37;17.27;;;5.90;;
30605;SDS011;17371;51.328;3.860;2022-10-26T02:04:24;11.07;;;5.03;;
30605;SDS011;17371;51.328;3.860;2022-10-26T02:06:59;9.57;;;5.50;;
30605;SDS011;17371;51.328;3.860;2022-10-26T02:09:27;14.48;;;5.85;;
30605;SDS011;17371;51.328;3.860;2022-10-26T02:11:59;15.02;;;5.63;;
30605;SDS011;17371;51.328;3.860;2022-10-26T02:14:30;14.45;;;6.13;;
30605;SDS011;17371;51.328;3.860;2022-10-26T02:17:00;15.50;;;5.73;;
30605;SDS011;17371;51.328;3.860;2022-10-26T02:19:32;18.33;;;5.57;;
30605;SDS011;17371;51.328;3.860;2022-10-26T02:22:04;12.40;;;5.72;;
30605;SDS011;17371;51.328;3.860;2022-10-26T02:24:33;14.27;;;5.47;;
30605;SDS011;17371;51.328;3.860;2022-10-26T02:27:00;12.88;;;5.43;;
30605;SDS011;17371;51.328;3.860;2022-10-26T02:29:28;18.33;;;6.13;;
30605;SDS011;17371;51.328;3.860;2022-10-26T02:31:54;12.88;;;5.45;;
30605;SDS011;17371;51.328;3.860;2022-10-26T02:34:22;10.70;;;5.18;;
30605;SDS011;17371;51.328;3.860;2022-10-26T02:36:49;18.35;;;5.78;;
30605;SDS011;17371;51.328;3.860;2022-10-26T02:39:18;15.93;;;5.32;;
30605;SDS011;17371;51.328;3.860;2022-10-26T02:41:43;13.93;;;5.13;;
30605;SDS011;17371;51.328;3.860;2022-10-26T02:44:11;16.35;;;5.45;;
30605;SDS011;17371;51.328;3.860;2022-10-26T02:46:39;11.65;;;5.13;;
30605;SDS011;17371;51.328;3.860;2022-10-26T02:49:04;14.23;;;6.07;;
30605;SDS011;17371;51.328;3.860;2022-10-26T02:51:31;11.77;;;5.20;;
30605;SDS011;17371;51.328;3.860;2022-10-26T02:54:01;12.35;;;5.22;;
30605;SDS011;17371;51.328;3.860;2022-10-26T02:56:33;11.10;;;5.60;;
30605;SDS011;17371;51.328;3.860;2022-10-26T02:59:02;10.50;;;5.20;;
30605;SDS011;17371;51.328;3.860;2022-10-26T03:01:29;11.18;;;5.22;;
30605;SDS011;17371;51.328;3.860;2022-10-26T03:03:55;16.13;;;5.10;;
30605;SDS011;17371;51.328;3.860;2022-10-26T03:06:21;8.80;;;4.95;;
30605;SDS011;17371;51.328;3.860;2022-10-26T03:08:46;17.37;;;5.20;;
30605;SDS011;17371;51.328;3.860;2022-10-26T03:11:13;11.93;;;5.97;;
30605;SDS011;17371;51.328;3.860;2022-10-26T03:13:39;8.52;;;4.95;;
30605;SDS011;17371;51.328;3.860;2022-10-26T03:16:04;11.70;;;4.93;;
30605;SDS011;17371;51.328;3.860;2022-10-26T03:18:30;11.57;;;5.20;;
30605;SDS011;17371;51.328;3.860;2022-10-26T03:20:55;10.57;;;5.17;;
30605;SDS011;17371;51.328;3.860;2022-10-26T03:23:21;11.80;;;4.90;;
30605;SDS011;17371;51.328;3.860;2022-10-26T03:25:46;14.70;;;5.68;;
30605;SDS011;17371;51.328;3.860;2022-10-26T03:28:13;13.17;;;4.73;;
30605;SDS011;17371;51.328;3.860;2022-10-26T03:30:38;16.67;;;5.03;;
30605;SDS011;17371;51.328;3.860;2022-10-26T03:33:03;11.93;;;5.00;;
30605;SDS011;17371;51.328;3.860;2022-10-26T03:35:29;13.03;;;5.50;;
30605;SDS011;17371;51.328;3.860;2022-10-26T03:37:54;13.40;;;5.03;;
30605;SDS011;17371;51.328;3.860;2022-10-26T03:40:20;15.27;;;5.30;;
30605;SDS011;17371;51.328;3.860;2022-10-26T03:42:45;14.27;;;5.15;;
30605;SDS011;17371;51.328;3.860;2022-10-26T03:45:12;12.03;;;4.77;;
30605;SDS011;17371;51.328;3.860;2022-10-26T03:47:47;10.63;;;4.77;;
30605;SDS011;17371;51.328;3.860;2022-10-26T03:50:14;12.57;;;4.75;;
30605;SDS011;17371;51.328;3.860;2022-10-26T03:52:40;13.55;;;4.93;;
30605;SDS011;17371;51.328;3.860;2022-10-26T03:55:06;15.37;;;4.73;;
30605;SDS011;17371;51.328;3.860;2022-10-26T03:57:32;13.98;;;4.25;;
30605;SDS011;17371;51.328;3.860;2022-10-26T03:59:57;11.67;;;4.17;;
30605;SDS011;17371;51.328;3.860;2022-10-26T04:02:24;15.17;;;4.47;;
30605;SDS011;17371;51.328;3.860;2022-10-26T04:04:49;9.23;;;3.90;;
30605;SDS011;17371;51.328;3.860;2022-10-26T04:07:15;14.27;;;4.63;;
30605;SDS011;17371;51.328;3.860;2022-10-26T04:09:40;7.30;;;3.60;;
30605;SDS011;17371;51.328;3.860;2022-10-26T04:12:06;11.73;;;3.83;;
30605;SDS011;17371;51.328;3.860;2022-10-26T04:14:31;9.20;;;3.73;;
30605;SDS011;17371;51.328;3.860;2022-10-26T04:16:56;9.10;;;3.80;;
30605;SDS011;17371;51.328;3.860;2022-10-26T04:19:23;9.43;;;3.73;;
30605;SDS011;17371;51.328;3.860;2022-10-26T04:21:49;6.80;;;3.45;;
30605;SDS011;17371;51.328;3.860;2022-10-26T04:24:15;14.35;;;3.80;;
30605;SDS011;17371;51.328;3.860;2022-10-26T04:26:40;9.53;;;3.40;;
30605;SDS011;17371;51.328;3.860;2022-10-26T04:29:05;8.83;;;3.50;;
30605;SDS011;17371;51.328;3.860;2022-10-26T04:31:31;9.98;;;4.07;;
30605;SDS011;17371;51.328;3.860;2022-10-26T04:33:56;5.75;;;3.05;;
30605;SDS011;17371;51.328;3.860;2022-10-26T04:36:23;10.77;;;3.67;;
30605;SDS011;17371;51.328;3.860;2022-10-26T04:38:48;9.15;;;3.03;;
30605;SDS011;17371;51.328;3.860;2022-10-26T04:41:14;7.23;;;3.10;;
30605;SDS011;17371;51.328;3.860;2022-10-26T04:43:39;9.13;;;3.20;;
30605;SDS011;17371;51.328;3.860;2022-10-26T04:46:05;10.37;;;3.37;;
30605;SDS011;17371;51.328;3.860;2022-10-26T04:48:30;9.70;;;3.30;;
30605;SDS011;17371;51.328;3.860;2022-10-26T04:50:57;9.90;;;3.20;;
30605;SDS011;17371;51.328;3.860;2022-10-26T04:53:24;7.60;;;2.90;;
30605;SDS011;17371;51.328;3.860;2022-10-26T04:55:54;6.82;;;3.42;;
30605;SDS011;17371;51.328;3.860;2022-10-26T04:58:20;10.07;;;3.35;;
30605;SDS011;17371;51.328;3.860;2022-10-26T05:00:46;9.20;;;3.00;;
30605;SDS011;17371;51.328;3.860;2022-10-26T05:03:11;8.63;;;3.07;;
30605;SDS011;17371;51.328;3.860;2022-10-26T05:05:36;9.30;;;3.17;;
30605;SDS011;17371;51.328;3.860;2022-10-26T05:08:02;6.60;;;3.13;;
30605;SDS011;17371;51.328;3.860;2022-10-26T05:10:29;6.38;;;2.55;;
30605;SDS011;17371;51.328;3.860;2022-10-26T05:12:55;6.55;;;2.88;;
30605;SDS011;17371;51.328;3.860;2022-10-26T05:15:21;6.88;;;2.92;;
30605;SDS011;17371;51.328;3.860;2022-10-26T05:17:49;7.33;;;2.93;;
30605;SDS011;17371;51.328;3.860;2022-10-26T05:20:18;10.40;;;3.20;;
30605;SDS011;17371;51.328;3.860;2022-10-26T05:22:51;8.88;;;3.20;;
30605;SDS011;17371;51.328;3.860;2022-10-26T05:25:16;12.00;;;3.05;;
30605;SDS011;17371;51.328;3.860;2022-10-26T05:27:43;8.37;;;2.80;;
30605;SDS011;17371;51.328;3.860;2022-10-26T05:30:09;15.88;;;2.83;;
30605;SDS011;17371;51.328;3.860;2022-10-26T05:32:36;7.27;;;2.83;;
30605;SDS011;17371;51.328;3.860;2022-10-26T05:35:02;8.05;;;2.70;;
30605;SDS011;17371;51.328;3.860;2022-10-26T05:37:27;8.87;;;3.00;;
30605;SDS011;17371;51.328;3.860;2022-10-26T05:39:53;8.13;;;2.90;;
30605;SDS011;17371;51.328;3.860;2022-10-26T05:42:18;9.30;;;2.77;;
30605;SDS011;17371;51.328;3.860;2022-10-26T05:44:45;5.68;;;2.40;;
30605;SDS011;17371;51.328;3.860;2022-10-26T05:47:10;8.57;;;3.20;;
30605;SDS011;17371;51.328;3.860;2022-10-26T05:49:36;6.97;;;2.90;;
30605;SDS011;17371;51.328;3.860;2022-10-26T05:52:01;6.70;;;3.03;;
30605;SDS011;17371;51.328;3.860;2022-10-26T05:54:26;7.57;;;2.93;;
30605;SDS011;17371;51.328;3.860;2022-10-26T05:56:52;7.53;;;3.10;;
30605;SDS011;17371;51.328;3.860;2022-10-26T05:59:18;5.30;;;2.78;;
30605;SDS011;17371;51.328;3.860;2022-10-26T06:01:50;7.47;;;2.73;;
30605;SDS011;17371;51.328;3.860;2022-10-26T06:04:22;8.05;;;2.92;;
30605;SDS011;17371;51.328;3.860;2022-10-26T06:06:52;7.65;;;2.78;;
30605;SDS011;17371;51.328;3.860;2022-10-26T06:09:19;7.38;;;2.67;;
30605;SDS011;17371;51.328;3.860;2022-10-26T06:11:45;10.17;;;2.80;;
30605;SDS011;17371;51.328;3.860;2022-10-26T06:14:11;8.77;;;2.90;;
30605;SDS011;17371;51.328;3.860;2022-10-26T06:16:39;12.88;;;3.55;;
30605;SDS011;17371;51.328;3.860;2022-10-26T06:19:14;6.80;;;3.03;;
30605;SDS011;17371;51.328;3.860;2022-10-26T06:21:49;7.20;;;3.10;;
30605;SDS011;17371;51.328;3.860;2022-10-26T06:24:21;7.05;;;3.00;;
30605;SDS011;17371;51.328;3.860;2022-10-26T06:26:50;5.65;;;2.90;;
30605;SDS011;17371;51.328;3.860;2022-10-26T06:29:23;9.20;;;2.97;;
30605;SDS011;17371;51.328;3.860;2022-10-26T06:31:56;6.22;;;3.17;;
30605;SDS011;17371;51.328;3.860;2022-10-26T06:34:23;9.47;;;2.97;;
30605;SDS011;17371;51.328;3.860;2022-10-26T06:36:50;7.88;;;3.00;;
30605;SDS011;17371;51.328;3.860;2022-10-26T06:39:16;8.90;;;3.03;;
30605;SDS011;17371;51.328;3.860;2022-10-26T06:41:42;6.17;;;3.13;;
30605;SDS011;17371;51.328;3.860;2022-10-26T06:44:08;14.93;;;3.28;;
30605;SDS011;17371;51.328;3.860;2022-10-26T06:46:38;10.85;;;3.00;;
30605;SDS011;17371;51.328;3.860;2022-10-26T06:49:08;18.83;;;4.60;;
30605;SDS011;17371;51.328;3.860;2022-10-26T06:51:42;24.95;;;7.13;;
30605;SDS011;17371;51.328;3.860;2022-10-26T06:54:12;35.25;;;9.13;;
30605;SDS011;17371;51.328;3.860;2022-10-26T06:56:42;33.53;;;9.10;;
30605;SDS011;17371;51.328;3.860;2022-10-26T06:59:08;29.53;;;8.57;;
30605;SDS011;17371;51.328;3.860;2022-10-26T07:01:39;24.45;;;7.95;;
30605;SDS011;17371;51.328;3.860;2022-10-26T07:04:04;25.33;;;7.13;;
30605;SDS011;17371;51.328;3.860;2022-10-26T07:06:29;16.17;;;6.17;;
30605;SDS011;17371;51.328;3.860;2022-10-26T07:08:56;21.03;;;6.23;;
30605;SDS011;17371;51.328;3.860;2022-10-26T07:11:22;11.82;;;5.30;;
30605;SDS011;17371;51.328;3.860;2022-10-26T07:13:47;14.60;;;4.83;;
30605;SDS011;17371;51.328;3.860;2022-10-26T07:16:12;8.57;;;4.43;;
30605;SDS011;17371;51.328;3.860;2022-10-26T07:18:38;9.93;;;4.33;;
30605;SDS011;17371;51.328;3.860;2022-10-26T07:21:05;12.75;;;4.05;;
30605;SDS011;17371;51.328;3.860;2022-10-26T07:23:30;12.10;;;3.97;;
30605;SDS011;17371;51.328;3.860;2022-10-26T07:25:59;10.07;;;4.03;;
30605;SDS011;17371;51.328;3.860;2022-10-26T07:28:24;11.90;;;4.32;;
30605;SDS011;17371;51.328;3.860;2022-10-26T07:30:50;10.63;;;3.87;;
30605;SDS011;17371;51.328;3.860;2022-10-26T07:33:15;11.77;;;3.83;;
30605;SDS011;17371;51.328;3.860;2022-10-26T07:35:40;10.27;;;3.47;;
30605;SDS011;17371;51.328;3.860;2022-10-26T07:38:06;8.97;;;4.30;;
30605;SDS011;17371;51.328;3.860;2022-10-26T07:40:31;7.90;;;3.95;;
30605;SDS011;17371;51.328;3.860;2022-10-26T07:42:59;8.67;;;4.43;;
30605;SDS011;17371;51.328;3.860;2022-10-26T07:45:25;9.45;;;4.13;;
30605;SDS011;17371;51.328;3.860;2022-10-26T07:47:50;10.52;;;4.55;;
30605;SDS011;17371;51.328;3.860;2022-10-26T07:50:16;13.10;;;4.33;;
30605;SDS011;17371;51.328;3.860;2022-10-26T07:52:41;11.07;;;3.77;;
30605;SDS011;17371;51.328;3.860;2022-10-26T07:55:07;10.17;;;3.57;;
30605;SDS011;17371;51.328;3.860;2022-10-26T07:57:33;9.10;;;3.67;;
30605;SDS011;17371;51.328;3.860;2022-10-26T08:00:00;6.33;;;2.90;;
30605;SDS011;17371;51.328;3.860;2022-10-26T08:02:25;12.18;;;3.78;;
30605;SDS011;17371;51.328;3.860;2022-10-26T08:04:51;9.40;;;3.30;;
30605;SDS011;17371;51.328;3.860;2022-10-26T08:07:16;12.82;;;3.30;;
30605;SDS011;17371;51.328;3.860;2022-10-26T08:09:41;9.00;;;3.10;;
30605;SDS011;17371;51.328;3.860;2022-10-26T08:12:07;8.97;;;3.20;;
30605;SDS011;17371;51.328;3.860;2022-10-26T08:14:32;10.50;;;3.50;;
30605;SDS011;17371;51.328;3.860;2022-10-26T08:16:59;6.90;;;3.03;;
30605;SDS011;17371;51.328;3.860;2022-10-26T08:19:24;8.38;;;2.83;;
30605;SDS011;17371;51.328;3.860;2022-10-26T08:21:50;6.90;;;3.03;;
30605;SDS011;17371;51.328;3.860;2022-10-26T08:24:15;9.77;;;3.20;;
30605;SDS011;17371;51.328;3.860;2022-10-26T08:26:40;7.63;;;3.22;;
30605;SDS011;17371;51.328;3.860;2022-10-26T08:29:06;5.03;;;2.90;;
30605;SDS011;17371;51.328;3.860;2022-10-26T08:31:31;6.80;;;3.07;;
30605;SDS011;17371;51.328;3.860;2022-10-26T08:33:58;13.77;;;3.08;;
30605;SDS011;17371;51.328;3.860;2022-10-26T08:36:24;12.57;;;3.60;;
30605;SDS011;17371;51.328;3.860;2022-10-26T08:38:50;6.43;;;3.00;;
30605;SDS011;17371;51.328;3.860;2022-10-26T08:41:15;10.47;;;3.67;;
30605;SDS011;17371;51.328;3.860;2022-10-26T08:43:41;5.43;;;3.20;;
30605;SDS011;17371;51.328;3.860;2022-10-26T08:46:12;9.75;;;3.10;;
30605;SDS011;17371;51.328;3.860;2022-10-26T08:48:40;10.40;;;3.40;;
30605;SDS011;17371;51.328;3.860;2022-10-26T08:51:10;12.00;;;3.60;;
30605;SDS011;17371;51.328;3.860;2022-10-26T08:53:39;14.10;;;3.33;;
30605;SDS011;17371;51.328;3.860;2022-10-26T08:56:09;6.35;;;3.00;;
30605;SDS011;17371;51.328;3.860;2022-10-26T08:58:37;9.45;;;3.22;;
30605;SDS011;17371;51.328;3.860;2022-10-26T09:01:06;8.80;;;3.42;;
30605;SDS011;17371;51.328;3.860;2022-10-26T09:03:32;5.33;;;3.07;;
30605;SDS011;17371;51.328;3.860;2022-10-26T09:06:02;6.63;;;2.97;;
30605;SDS011;17371;51.328;3.860;2022-10-26T09:08:35;9.43;;;2.73;;
30605;SDS011;17371;51.328;3.860;2022-10-26T09:11:06;6.07;;;2.80;;
30605;SDS011;17371;51.328;3.860;2022-10-26T09:13:36;7.15;;;3.10;;
30605;SDS011;17371;51.328;3.860;2022-10-26T09:16:12;10.73;;;2.90;;
30605;SDS011;17371;51.328;3.860;2022-10-26T09:18:45;6.50;;;3.05;;
30605;SDS011;17371;51.328;3.860;2022-10-26T09:21:19;9.40;;;3.10;;
30605;SDS011;17371;51.328;3.860;2022-10-26T09:23:55;7.35;;;3.20;;
30605;SDS011;17371;51.328;3.860;2022-10-26T09:26:28;8.20;;;3.00;;
30605;SDS011;17371;51.328;3.860;2022-10-26T09:28:56;9.88;;;2.95;;
30605;SDS011;17371;51.328;3.860;2022-10-26T09:31:22;10.20;;;3.20;;
30605;SDS011;17371;51.328;3.860;2022-10-26T09:33:47;5.60;;;2.95;;
30605;SDS011;17371;51.328;3.860;2022-10-26T09:36:16;7.40;;;3.20;;
30605;SDS011;17371;51.328;3.860;2022-10-26T09:38:43;6.00;;;3.15;;
30605;SDS011;17371;51.328;3.860;2022-10-26T09:41:14;6.72;;;3.00;;
30605;SDS011;17371;51.328;3.860;2022-10-26T09:43:45;6.53;;;3.00;;
30605;SDS011;17371;51.328;3.860;2022-10-26T09:46:14;7.35;;;3.15;;
30605;SDS011;17371;51.328;3.860;2022-10-26T09:48:43;10.00;;;2.97;;
30605;SDS011;17371;51.328;3.860;2022-10-26T09:51:13;6.22;;;2.72;;
30605;SDS011;17371;51.328;3.860;2022-10-26T09:53:39;10.07;;;3.08;;
30605;SDS011;17371;51.328;3.860;2022-10-26T09:56:05;7.83;;;3.10;;
30605;SDS011;17371;51.328;3.860;2022-10-26T09:58:35;10.20;;;3.22;;
30605;SDS011;17371;51.328;3.860;2022-10-26T10:01:01;8.38;;;2.85;;
30605;SDS011;17371;51.328;3.860;2022-10-26T10:03:27;14.53;;;3.10;;
30605;SDS011;17371;51.328;3.860;2022-10-26T10:05:55;5.80;;;2.90;;
30605;SDS011;17371;51.328;3.860;2022-10-26T10:08:38;6.72;;;3.08;;
30605;SDS011;17371;51.328;3.860;2022-10-26T10:11:05;11.50;;;3.50;;
30605;SDS011;17371;51.328;3.860;2022-10-26T10:13:33;7.15;;;3.25;;
30605;SDS011;17371;51.328;3.860;2022-10-26T10:16:02;8.57;;;3.23;;
30605;SDS011;17371;51.328;3.860;2022-10-26T10:18:29;11.63;;;3.22;;
30605;SDS011;17371;51.328;3.860;2022-10-26T10:20:56;7.18;;;2.90;;
30605;SDS011;17371;51.328;3.860;2022-10-26T10:23:23;10.45;;;2.90;;
30605;SDS011;17371;51.328;3.860;2022-10-26T10:25:56;8.47;;;2.80;;
30605;SDS011;17371;51.328;3.860;2022-10-26T10:28:23;5.97;;;2.80;;
30605;SDS011;17371;51.328;3.860;2022-10-26T10:30:54;8.25;;;2.85;;
30605;SDS011;17371;51.328;3.860;2022-10-26T10:33:20;9.30;;;3.17;;
30605;SDS011;17371;51.328;3.860;2022-10-26T10:35:46;7.70;;;3.10;;
30605;SDS011;17371;51.328;3.860;2022-10-26T10:38:14;10.30;;;2.80;;
30605;SDS011;17371;51.328;3.860;2022-10-26T10:40:40;8.23;;;2.90;;
30605;SDS011;17371;51.328;3.860;2022-10-26T10:43:13;10.63;;;2.70;;
30605;SDS011;17371;51.328;3.860;2022-10-26T10:45:39;6.18;;;2.45;;
30605;SDS011;17371;51.328;3.860;2022-10-26T10:48:12;7.35;;;2.55;;
30605;SDS011;17371;51.328;3.860;2022-10-26T10:50:47;8.05;;;2.40;;
30605;SDS011;17371;51.328;3.860;2022-10-26T10:53:16;7.93;;;2.03;;
30605;SDS011;17371;51.328;3.860;2022-10-26T10:55:44;5.82;;;2.40;;
30605;SDS011;17371;51.328;3.860;2022-10-26T10:58:17;7.68;;;2.53;;
30605;SDS011;17371;51.328;3.860;2022-10-26T11:00:47;8.45;;;2.42;;
30605;SDS011;17371;51.328;3.860;2022-10-26T11:03:17;9.10;;;2.87;;
30605;SDS011;17371;51.328;3.860;2022-10-26T11:05:59;8.27;;;2.30;;
30605;SDS011;17371;51.328;3.860;2022-10-26T11:08:29;10.30;;;2.70;;
30605;SDS011;17371;51.328;3.860;2022-10-26T11:10:59;10.82;;;2.00;;
30605;SDS011;17371;51.328;3.860;2022-10-26T11:13:26;7.97;;;2.30;;
30605;SDS011;17371;51.328;3.860;2022-10-26T11:15:57;5.90;;;2.15;;
30605;SDS011;17371;51.328;3.860;2022-10-26T11:18:28;9.82;;;2.42;;
30605;SDS011;17371;51.328;3.860;2022-10-26T11:20:59;6.25;;;2.10;;
30605;SDS011;17371;51.328;3.860;2022-10-26T11:23:28;7.80;;;2.00;;
30605;SDS011;17371;51.328;3.860;2022-10-26T11:25:58;8.73;;;2.17;;
30605;SDS011;17371;51.328;3.860;2022-10-26T11:28:30;7.18;;;2.13;;
30605;SDS011;17371;51.328;3.860;2022-10-26T11:31:02;5.57;;;2.50;;
30605;SDS011;17371;51.328;3.860;2022-10-26T11:33:34;9.48;;;1.90;;
30605;SDS011;17371;51.328;3.860;2022-10-26T11:36:05;13.45;;;2.45;;
30605;SDS011;17371;51.328;3.860;2022-10-26T11:38:34;9.45;;;1.85;;
30605;SDS011;17371;51.328;3.860;2022-10-26T11:41:05;5.43;;;1.50;;
30605;SDS011;17371;51.328;3.860;2022-10-26T11:43:37;4.10;;;1.73;;
30605;SDS011;17371;51.328;3.860;2022-10-26T11:46:04;7.43;;;2.25;;
30605;SDS011;17371;51.328;3.860;2022-10-26T11:48:35;6.40;;;1.92;;
30605;SDS011;17371;51.328;3.860;2022-10-26T11:51:05;11.20;;;2.42;;
30605;SDS011;17371;51.328;3.860;2022-10-26T11:53:41;5.50;;;1.73;;
30605;SDS011;17371;51.328;3.860;2022-10-26T11:56:09;5.13;;;1.77;;
30605;SDS011;17371;51.328;3.860;2022-10-26T11:58:38;6.25;;;2.00;;
30605;SDS011;17371;51.328;3.860;2022-10-26T12:01:06;4.73;;;2.10;;
30605;SDS011;17371;51.328;3.860;2022-10-26T12:03:35;6.03;;;1.70;;
30605;SDS011;17371;51.328;3.860;2022-10-26T12:06:04;10.85;;;2.00;;
30605;SDS011;17371;51.328;3.860;2022-10-26T12:08:30;7.28;;;1.58;;
30605;SDS011;17371;51.328;3.860;2022-10-26T12:11:00;6.70;;;1.90;;
30605;SDS011;17371;51.328;3.860;2022-10-26T12:13:30;5.93;;;2.33;;
30605;SDS011;17371;51.328;3.860;2022-10-26T12:16:00;8.18;;;2.08;;
30605;SDS011;17371;51.328;3.860;2022-10-26T12:18:32;8.55;;;1.83;;
30605;SDS011;17371;51.328;3.860;2022-10-26T12:21:01;7.35;;;1.92;;
30605;SDS011;17371;51.328;3.860;2022-10-26T12:23:29;7.40;;;1.77;;
30605;SDS011;17371;51.328;3.860;2022-10-26T12:29:13;6.22;;;1.90;;
30605;SDS011;17371;51.328;3.860;2022-10-26T12:31:55;6.55;;;1.67;;
30605;SDS011;17371;51.328;3.860;2022-10-26T12:34:56;8.50;;;2.47;;
30605;SDS011;17371;51.328;3.860;2022-10-26T12:37:29;9.20;;;1.70;;
30605;SDS011;17371;51.328;3.860;2022-10-26T12:40:02;6.50;;;1.80;;
30605;SDS011;17371;51.328;3.860;2022-10-26T12:52:06;7.88;;;1.75;;
30605;SDS011;17371;51.328;3.860;2022-10-26T12:54:44;8.38;;;1.77;;
30605;SDS011;17371;51.328;3.860;2022-10-26T12:57:18;8.95;;;2.65;;
30605;SDS011;17371;51.328;3.860;2022-10-26T12:59:49;7.53;;;1.70;;
30605;SDS011;17371;51.328;3.860;2022-10-26T13:02:34;4.97;;;2.00;;
30605;SDS011;17371;51.328;3.860;2022-10-26T13:08:00;6.70;;;1.70;;
30605;SDS011;17371;51.328;3.860;2022-10-26T13:10:26;5.30;;;2.00;;
30605;SDS011;17371;51.328;3.860;2022-10-26T13:12:53;7.45;;;1.70;;
30605;SDS011;17371;51.328;3.860;2022-10-26T13:15:23;9.88;;;2.13;;
30605;SDS011;17371;51.328;3.860;2022-10-26T13:17:57;8.20;;;1.60;;
30605;SDS011;17371;51.328;3.860;2022-10-26T13:20:25;8.63;;;1.90;;
30605;SDS011;17371;51.328;3.860;2022-10-26T13:22:50;6.90;;;2.00;;
30605;SDS011;17371;51.328;3.860;2022-10-26T13:25:20;6.10;;;1.90;;
30605;SDS011;17371;51.328;3.860;2022-10-26T13:27:55;7.38;;;1.80;;
30605;SDS011;17371;51.328;3.860;2022-10-26T13:35:59;5.57;;;1.83;;
30605;SDS011;17371;51.328;3.860;2022-10-26T13:38:28;10.95;;;1.92;;
30605;SDS011;17371;51.328;3.860;2022-10-26T13:41:01;8.40;;;1.90;;
30605;SDS011;17371;51.328;3.860;2022-10-26T13:43:31;5.38;;;1.80;;
30605;SDS011;17371;51.328;3.860;2022-10-26T13:45:58;6.50;;;1.80;;
30605;SDS011;17371;51.328;3.860;2022-10-26T13:48:26;8.45;;;1.95;;
30605;SDS011;17371;51.328;3.860;2022-10-26T13:50:56;6.35;;;1.73;;
30605;SDS011;17371;51.328;3.860;2022-10-26T13:53:26;6.13;;;1.80;;
30605;SDS011;17371;51.328;3.860;2022-10-26T13:55:59;9.63;;;2.17;;
30605;SDS011;17371;51.328;3.860;2022-10-26T13:58:27;5.00;;;1.90;;
30605;SDS011;17371;51.328;3.860;2022-10-26T14:01:00;12.90;;;2.20;;
30605;SDS011;17371;51.328;3.860;2022-10-26T14:03:26;4.22;;;1.70;;
30605;SDS011;17371;51.328;3.860;2022-10-26T14:05:52;12.60;;;2.13;;
30605;SDS011;17371;51.328;3.860;2022-10-26T14:08:18;9.90;;;1.92;;
30605;SDS011;17371;51.328;3.860;2022-10-26T14:10:44;7.23;;;2.00;;
30605;SDS011;17371;51.328;3.860;2022-10-26T14:13:13;4.00;;;1.70;;
30605;SDS011;17371;51.328;3.860;2022-10-26T14:15:41;11.48;;;2.08;;
30605;SDS011;17371;51.328;3.860;2022-10-26T14:18:11;3.88;;;1.50;;
30605;SDS011;17371;51.328;3.860;2022-10-26T14:20:39;4.05;;;1.50;;
30605;SDS011;17371;51.328;3.860;2022-10-26T14:23:04;3.83;;;1.27;;
30605;SDS011;17371;51.328;3.860;2022-10-26T14:25:29;6.30;;;1.87;;
30605;SDS011;17371;51.328;3.860;2022-10-26T14:27:55;4.40;;;1.37;;
30605;SDS011;17371;51.328;3.860;2022-10-26T14:30:23;4.97;;;1.70;;
30605;SDS011;17371;51.328;3.860;2022-10-26T14:32:50;6.35;;;1.40;;
30605;SDS011;17371;51.328;3.860;2022-10-26T14:35:16;5.55;;;1.40;;
30605;SDS011;17371;51.328;3.860;2022-10-26T14:37:42;6.32;;;1.55;;
30605;SDS011;17371;51.328;3.860;2022-10-26T14:40:12;6.38;;;1.67;;
30605;SDS011;17371;51.328;3.860;2022-10-26T14:42:39;8.88;;;2.20;;
30605;SDS011;17371;51.328;3.860;2022-10-26T14:45:17;11.15;;;2.50;;
30605;SDS011;17371;51.328;3.860;2022-10-26T14:47:48;5.68;;;2.40;;
30605;SDS011;17371;51.328;3.860;2022-10-26T14:50:16;6.97;;;2.23;;
30605;SDS011;17371;51.328;3.860;2022-10-26T14:52:47;6.38;;;1.70;;
30605;SDS011;17371;51.328;3.860;2022-10-26T14:55:14;9.43;;;1.98;;
30605;SDS011;17371;51.328;3.860;2022-10-26T14:57:41;7.00;;;2.00;;
30605;SDS011;17371;51.328;3.860;2022-10-26T15:00:12;6.82;;;1.70;;
30605;SDS011;17371;51.328;3.860;2022-10-26T15:02:41;7.20;;;2.00;;
30605;SDS011;17371;51.328;3.860;2022-10-26T15:05:17;7.05;;;1.67;;
30605;SDS011;17371;51.328;3.860;2022-10-26T15:07:44;10.23;;;2.05;;
30605;SDS011;17371;51.328;3.860;2022-10-26T15:13:08;10.43;;;2.97;;
30605;SDS011;17371;51.328;3.860;2022-10-26T15:15:34;8.10;;;3.00;;
30605;SDS011;17371;51.328;3.860;2022-10-26T15:18:01;6.50;;;3.13;;